createdAt,value
2022-08-21T00:04:06.690Z,101512.13
2022-08-21T00:09:09.588Z,101509.97
2022-08-21T00:14:12.218Z,101506.53
2022-08-21T00:19:13.976Z,101507.81
2022-08-21T00:24:15.625Z,101503.94
2022-08-21T00:29:17.304Z,101506.75
2022-08-21T00:34:19.065Z,101504.59
2022-08-21T00:39:20.903Z,101502.69
2022-08-21T00:44:22.600Z,101491.53
2022-08-21T00:49:24.324Z,101497.53
2022-08-21T00:54:28.319Z,101500.09
2022-08-21T00:59:35.946Z,101504.41
2022-08-21T01:04:38.219Z,101495.84
2022-08-21T01:09:41.522Z,101494.53
2022-08-21T01:14:43.842Z,101491.97
2022-08-21T01:19:45.594Z,101493.66
2022-08-21T01:24:47.312Z,101497.75
2022-08-21T01:29:57.939Z,101499.66
2022-08-21T01:34:59.624Z,101497.28
2022-08-21T01:40:01.714Z,101498.16
2022-08-21T01:45:05.752Z,101493.63
2022-08-21T01:50:11.587Z,101493.00
2022-08-21T01:55:15.205Z,101493.59
2022-08-21T02:00:20.065Z,101485.94
2022-08-21T02:05:21.757Z,101476.50
2022-08-21T02:10:27.527Z,101471.38
2022-08-21T02:15:31.213Z,101463.03
2022-08-21T02:20:39.639Z,101466.63
2022-08-21T02:25:42.264Z,101462.34
2022-08-21T02:30:46.796Z,101455.69
2022-08-21T02:35:49.756Z,101466.81
2022-08-21T02:40:52.685Z,101459.78
2022-08-21T02:45:56.328Z,101454.59
2022-08-21T02:51:03.404Z,101451.38
2022-08-21T02:56:08.263Z,101448.19
2022-08-21T03:01:10.559Z,101445.16
2022-08-21T03:06:15.974Z,101447.28
2022-08-21T03:11:18.478Z,101437.88
2022-08-21T03:16:21.466Z,101446.00
2022-08-21T03:21:23.477Z,101429.72
2022-08-21T03:26:27.833Z,101429.25
2022-08-21T03:31:31.929Z,101427.50
2022-08-21T03:36:33.551Z,101418.13
2022-08-21T03:41:35.216Z,101421.50
2022-08-21T03:46:36.961Z,101407.78
2022-08-21T03:51:38.698Z,101407.78
2022-08-21T03:56:40.411Z,101406.03
2022-08-21T04:01:52.690Z,101403.03
2022-08-21T04:06:54.883Z,101413.97
2022-08-21T04:11:57.207Z,101417.13
2022-08-21T04:16:58.827Z,101422.88
2022-08-21T04:22:00.650Z,101417.44
2022-08-21T04:27:02.473Z,101423.69
2022-08-21T04:32:04.259Z,101427.13
2022-08-21T04:37:05.979Z,101440.63
2022-08-21T04:42:07.767Z,101434.25
2022-08-21T04:47:09.472Z,101439.97
2022-08-21T04:52:13.887Z,101435.91
2022-08-21T04:57:16.991Z,101432.03
2022-08-21T05:02:19.680Z,101438.69
2022-08-21T05:07:42.469Z,101437.31
2022-08-21T05:12:45.961Z,101446.97
2022-08-21T05:17:57.148Z,101443.78
2022-08-21T05:23:09.513Z,101446.56
2022-08-21T05:28:11.719Z,101440.75
2022-08-21T05:33:13.407Z,101444.69
2022-08-21T05:38:18.360Z,101445.59
2022-08-21T05:43:20.676Z,101450.75
2022-08-21T05:48:24.910Z,101448.34
2022-08-21T05:53:26.617Z,101454.00
2022-08-21T05:58:28.380Z,101448.91
2022-08-21T06:03:34.962Z,101449.56
2022-08-21T06:08:37.143Z,101443.38
2022-08-21T06:13:39.945Z,101451.06
2022-08-21T06:18:42.092Z,101455.19
2022-08-21T06:23:44.502Z,101447.09
2022-08-21T06:28:46.171Z,101451.63
2022-08-21T06:33:48.271Z,101446.50
2022-08-21T06:38:51.598Z,101447.34
2022-08-21T06:43:55.465Z,101446.34
2022-08-21T06:48:58.494Z,101438.81
2022-08-21T06:54:00.167Z,101443.56
2022-08-21T06:59:01.857Z,101444.66
2022-08-21T07:04:03.829Z,101443.75
2022-08-21T07:09:05.530Z,101445.47
2022-08-21T07:14:07.207Z,101449.97
2022-08-21T07:19:08.960Z,101450.38
2022-08-21T07:24:11.331Z,101439.44
2022-08-21T07:29:14.053Z,101447.78
2022-08-21T07:34:17.229Z,101455.91
2022-08-21T07:39:22.222Z,101458.38
2022-08-21T07:44:23.983Z,101453.59
2022-08-21T07:49:25.656Z,101451.03
2022-08-21T07:54:33.946Z,101453.91
2022-08-21T07:59:36.282Z,101446.53
2022-08-21T08:04:37.986Z,101462.25
2022-08-21T08:09:52.276Z,101456.75
2022-08-21T08:14:53.994Z,101459.94
2022-08-21T08:19:56.367Z,101456.72
2022-08-21T08:24:58.074Z,101466.53
2022-08-21T08:29:59.848Z,101462.84
2022-08-21T08:35:02.968Z,101461.03
2022-08-21T08:40:07.017Z,101457.88
2022-08-21T08:45:20.918Z,101452.38
2022-08-21T08:50:29.009Z,101442.81
2022-08-21T08:55:36.887Z,101441.81
2022-08-21T09:00:39.312Z,101454.00
2022-08-21T09:05:54.651Z,101449.72
2022-08-21T09:10:59.206Z,101460.91
2022-08-21T09:16:10.188Z,101450.91
2022-08-21T09:21:37.343Z,101457.22
2022-08-21T09:26:57.941Z,101473.50
2022-08-21T09:31:59.549Z,101457.28
2022-08-21T09:37:01.474Z,101460.63
2022-08-21T09:42:07.384Z,101459.13
2022-08-21T09:47:10.762Z,101470.41
2022-08-21T09:52:30.585Z,101473.44
2022-08-21T09:57:46.843Z,101480.78
2022-08-21T10:02:52.569Z,101475.59
2022-08-21T10:07:54.247Z,101476.03
2022-08-21T10:12:59.126Z,101464.31
2022-08-21T10:18:22.994Z,101472.53
2022-08-21T10:23:52.605Z,101482.25
2022-08-21T10:29:02.812Z,101472.03
2022-08-21T10:34:18.681Z,101475.91
2022-08-21T10:39:36.533Z,101470.50
2022-08-21T10:44:55.036Z,101468.81
2022-08-21T10:50:14.926Z,101467.72
2022-08-21T10:55:21.010Z,101479.25
2022-08-21T11:00:28.962Z,101483.91
2022-08-21T11:05:39.715Z,101488.81
2022-08-21T11:10:58.102Z,101486.66
2022-08-21T11:16:10.477Z,101493.44
2022-08-21T11:21:39.883Z,101508.19
2022-08-21T11:27:02.347Z,101505.97
2022-08-21T11:32:16.222Z,101510.69
2022-08-21T11:37:38.192Z,101513.00
2022-08-21T11:42:56.326Z,101511.63
2022-08-21T11:48:41.326Z,101497.53
2022-08-21T11:54:26.673Z,101501.63
2022-08-21T11:59:40.819Z,101511.00
2022-08-21T12:04:47.709Z,101509.84
2022-08-21T12:09:56.167Z,101501.06
2022-08-21T12:15:22.942Z,101517.13
2022-08-21T12:20:30.499Z,101507.63
2022-08-21T12:25:42.087Z,101518.91
2022-08-21T12:30:46.284Z,101514.59
2022-08-21T12:35:52.435Z,101507.66
2022-08-21T12:41:01.898Z,101520.91
2022-08-21T12:46:05.469Z,101524.69
2022-08-21T12:51:13.119Z,101524.31
2022-08-21T12:56:18.676Z,101536.50
2022-08-21T13:01:41.435Z,101517.84
2022-08-21T13:06:47.353Z,101516.34
2022-08-21T13:11:50.163Z,101517.13
2022-08-21T13:16:59.007Z,101511.03
2022-08-21T13:22:01.703Z,101522.41
2022-08-21T13:27:19.798Z,101526.44
2022-08-21T13:32:26.867Z,101526.03
2022-08-21T13:37:30.084Z,101527.13
2022-08-21T13:42:32.464Z,101525.69
2022-08-21T13:47:34.212Z,101523.88
2022-08-21T13:52:57.102Z,101531.69
2022-08-21T13:58:04.022Z,101530.94
2022-08-21T14:03:12.327Z,101533.59
2022-08-21T14:08:38.706Z,101522.84
2022-08-21T14:13:46.865Z,101523.44
2022-08-21T14:19:03.563Z,101513.16
2022-08-21T14:24:13.318Z,101524.75
2022-08-21T14:29:18.495Z,101516.34
2022-08-21T14:34:22.510Z,101523.19
2022-08-21T14:39:24.327Z,101521.94
2022-08-21T14:44:26.292Z,101528.13
2022-08-21T14:49:29.455Z,101525.06
2022-08-21T14:54:33.135Z,101523.81
2022-08-21T14:59:36.515Z,101528.72
2022-08-21T15:04:38.328Z,101520.34
2022-08-21T15:09:39.980Z,101527.50
2022-08-21T15:14:42.070Z,101519.53
2022-08-21T15:19:43.768Z,101531.53
2022-08-21T15:24:45.505Z,101527.03
2022-08-21T15:29:47.349Z,101531.78
2022-08-21T15:34:49.003Z,101536.75
2022-08-21T15:39:54.225Z,101528.72
2022-08-21T15:44:57.175Z,101528.19
2022-08-21T15:50:23.544Z,101536.31
2022-08-21T15:55:26.570Z,101536.75
2022-08-21T16:00:29.280Z,101532.91
2022-08-21T16:05:32.870Z,101536.91
2022-08-21T16:10:36.191Z,101524.81
2022-08-21T16:15:37.949Z,101538.41
2022-08-21T16:20:40.134Z,101528.09
2022-08-21T16:25:44.405Z,101534.03
2022-08-21T16:30:49.483Z,101539.22
2022-08-21T16:35:51.819Z,101536.34
2022-08-21T16:40:53.992Z,101544.16
2022-08-21T16:45:57.480Z,101535.84
2022-08-21T16:50:59.267Z,101538.69
2022-08-21T16:56:01.642Z,101534.06
2022-08-21T17:01:07.027Z,101532.84
2022-08-21T17:06:11.275Z,101536.03
2022-08-21T17:11:37.323Z,101531.53
2022-08-21T17:16:44.517Z,101531.78
2022-08-21T17:21:46.751Z,101525.94
2022-08-21T17:26:49.224Z,101521.44
2022-08-21T17:31:51.399Z,101522.06
2022-08-21T17:36:57.998Z,101516.31
2022-08-21T17:42:04.251Z,101524.22
2022-08-21T17:47:08.605Z,101530.34
2022-08-21T17:52:10.573Z,101514.47
2022-08-21T17:57:22.807Z,101515.44
2022-08-21T18:02:24.963Z,101520.47
2022-08-21T18:07:31.969Z,101519.09
2022-08-21T18:12:37.517Z,101517.13
2022-08-21T18:17:42.384Z,101515.19
2022-08-21T18:22:44.395Z,101522.47
2022-08-21T18:27:48.253Z,101518.09
2022-08-21T18:32:52.474Z,101522.19
2022-08-21T18:37:55.570Z,101514.00
2022-08-21T18:42:57.385Z,101510.59
2022-08-21T18:48:01.987Z,101515.94
2022-08-21T18:53:20.834Z,101523.00
2022-08-21T19:04:48.871Z,101529.78
2022-08-21T19:16:34.248Z,101531.69
2022-08-21T19:21:38.325Z,101535.22
2022-08-21T19:26:41.133Z,101542.59
2022-08-21T19:31:44.976Z,101538.34
2022-08-21T19:43:30.366Z,101545.34
2022-08-21T19:48:33.616Z,101537.88
2022-08-21T19:53:39.059Z,101543.09
2022-08-21T19:58:43.244Z,101554.16
2022-08-21T20:09:09.617Z,101552.97
2022-08-21T20:14:15.018Z,101553.66
2022-08-21T20:19:17.486Z,101556.94
2022-08-21T20:24:20.598Z,101558.84
2022-08-21T20:29:35.112Z,101558.44
2022-08-21T20:34:41.806Z,101559.56
2022-08-21T20:39:46.891Z,101549.91
2022-08-21T20:44:49.237Z,101553.78
2022-08-21T21:00:49.685Z,101554.88
2022-08-21T21:06:01.817Z,101560.78
2022-08-21T21:11:11.147Z,101560.38
2022-08-21T21:16:23.875Z,101567.66
2022-08-21T21:21:35.332Z,101568.34
2022-08-21T21:32:06.592Z,101563.47
2022-08-21T21:37:14.090Z,101560.88
2022-08-21T21:42:59.369Z,101565.69
2022-08-21T21:48:42.942Z,101575.34
2022-08-21T21:53:54.992Z,101570.81
2022-08-21T21:59:33.169Z,101580.53
2022-08-21T22:04:51.211Z,101572.66
2022-08-21T22:10:05.666Z,101571.31
2022-08-21T22:15:07.884Z,101562.09
2022-08-21T22:20:36.062Z,101565.28
2022-08-21T22:25:42.986Z,101558.44
2022-08-21T22:30:51.925Z,101555.25
2022-08-21T22:35:58.821Z,101564.06
2022-08-21T22:41:17.399Z,101556.78
2022-08-21T22:46:45.002Z,101568.81
2022-08-21T22:51:48.772Z,101562.16
2022-08-21T22:57:05.123Z,101542.59
2022-08-21T23:02:22.128Z,101551.44
2022-08-21T23:07:50.824Z,101554.69
2022-08-21T23:12:59.551Z,101545.22
2022-08-21T23:18:25.600Z,101541.81
2022-08-21T23:23:30.665Z,101542.03
2022-08-21T23:28:50.836Z,101540.09
2022-08-21T23:34:10.379Z,101537.53
2022-08-21T23:39:39.268Z,101540.56
2022-08-21T23:44:41.103Z,101537.53
2022-08-21T23:50:05.667Z,101534.97
2022-08-21T23:55:30.603Z,101532.41
